Terminal Aerodrome Forecast
Issued by NWS

Home | Current Version | Previous Version | Graphics & Text | Print | Product List | Glossary On
Versions: 1 2 3 4 5 6 7 8 9 10 11 12 13 14 15 16
431
FTUS43 KGRB 192330
TAFMTW
TAF
KMTW 192330Z 2000/2024 31007KT P6SM SCT035 BKN050
      TEMPO 2000/2002 3SM -TSRA BKN035CB
     FM200400 28006KT P6SM SCT070
     FM201500 28010G15KT P6SM -SHRA BKN070
     FM201900 28009G14KT P6SM BKN060=

USA.gov is the U.S. government's official web portal to all federal, state and local government web resources and services.